»·PEaware :: N107MR CYKA-KGEG

N107MR :: CYKA-KGEG

FLIGHT INFORMATION

Flight Status: Arrived
Operator: Privately registered:
United States
More flights under this callsign
Pilot: Michael R. (16974)
Aircraft: ECLIPSE 500
(EA50)
More flights by this aircraft type
Origin: CYKA Kamloops
Canada
Destination: KGEG Spokane Intl
United States
More flights between these airports :: More routes between these airports
Route: GEG
File this flight plan on PilotEdge
Remarks:
Altitude:
(Current/Filed)
23,000ft
Speed:
(Current/Filed)
350kts
Departed: 10-Feb-18 12:30 PM
Arrived: 10-Feb-18 01:16 PM
Distance/Time
Traveled:
217nm/0:45
Distance/Time
To Go:
Arrived

Flight Plot

Page will automatically refresh every two minutes.

Flight plan parsing failed; only flown route is shown


Map Options




Map Legend


Flown Route
Filed Route
Departure Airport
Arrival Airport
Navaid (VOR, NDB)
Fix

Horizontal Profiles

Position Reports

Time Latitude Longitude Heading Altitude Ground
Speed
10-Feb-18 12:36 50.704858 -120.460794 104 1135ft 74kts
10-Feb-18 12:37 50.697030 -120.403178 120 3435ft 165kts
10-Feb-18 12:38 50.668542 -120.337451 136 6511ft 201kts
10-Feb-18 12:39 50.626968 -120.274237 138 9646ft 214kts
10-Feb-18 12:40 50.572822 -120.232535 157 12414ft 226kts
10-Feb-18 12:41 50.514494 -120.191429 157 14968ft 237kts
10-Feb-18 12:42 50.452682 -120.149490 157 17316ft 249kts
10-Feb-18 12:43 50.387774 -120.106949 157 19448ft 261kts
10-Feb-18 12:44 50.319365 -120.063315 157 21396ft 273kts
10-Feb-18 12:45 50.247430 -120.018575 157 23140ft 285kts
10-Feb-18 12:46 50.171106 -119.958230 134 23441ft 340kts
10-Feb-18 12:47 50.088206 -119.865663 143 23438ft 388kts
10-Feb-18 12:48 49.993432 -119.773804 145 23439ft 411kts
10-Feb-18 12:49 49.898436 -119.684676 145 23441ft 402kts
10-Feb-18 12:50 49.805729 -119.598424 145 23425ft 404kts
10-Feb-18 12:51 49.709593 -119.509583 144 23475ft 401kts
10-Feb-18 12:52 49.613911 -119.421399 144 23482ft 401kts
10-Feb-18 12:53 49.520580 -119.335814 145 23447ft 402kts
10-Feb-18 12:54 49.425225 -119.248831 145 23439ft 401kts
10-Feb-18 12:55 49.328697 -119.161180 145 23441ft 403kts
10-Feb-18 12:56 49.232369 -119.074144 145 23474ft 400kts
10-Feb-18 12:57 49.136780 -118.988084 145 23476ft 400kts
10-Feb-18 12:58 49.041126 -118.902379 145 23478ft 400kts
10-Feb-18 12:59 48.945416 -118.817020 145 23480ft 400kts
10-Feb-18 13:00 48.851680 -118.733822 145 23465ft 402kts
10-Feb-18 13:01 48.758035 -118.651073 144 23247ft 379kts
10-Feb-18 13:02 48.669236 -118.572797 145 21516ft 365kts
10-Feb-18 13:03 48.582880 -118.497053 146 19806ft 353kts
10-Feb-18 13:04 48.499899 -118.424587 147 18110ft 340kts
10-Feb-18 13:05 48.419473 -118.354661 147 16418ft 329kts
10-Feb-18 13:06 48.343680 -118.288964 148 14842ft 321kts
10-Feb-18 13:07 48.267525 -118.223197 148 13238ft 314kts
10-Feb-18 13:08 48.193839 -118.159799 148 11446ft 294kts
10-Feb-18 13:09 48.126858 -118.102202 149 9721ft 277kts
10-Feb-18 13:10 48.061682 -118.046403 150 8052ft 261kts
10-Feb-18 13:11 47.998598 -117.992623 150 7994ft 265kts
10-Feb-18 13:12 47.935132 -117.938664 151 7995ft 265kts
10-Feb-18 13:13 47.873136 -117.885897 151 7225ft 258kts
10-Feb-18 13:14 47.813695 -117.831635 151 5637ft 243kts
10-Feb-18 13:15 47.774145 -117.763252 70 4992ft 238kts
10-Feb-18 13:16 47.805800 -117.682497 54 4991ft 224kts
10-Feb-18 13:17 47.813727 -117.598292 123 4993ft 232kts
10-Feb-18 13:18 47.773021 -117.525164 142 5009ft 231kts
10-Feb-18 13:19 47.721270 -117.472081 147 4336ft 222kts
10-Feb-18 13:20 47.671923 -117.458186 216 3726ft 145kts
10-Feb-18 13:21 47.645000 -117.497304 231 2835ft 126kts
10-Feb-18 13:22 47.624053 -117.529110 226 2351ft 66kts
10-Feb-18 13:23 47.620868 -117.532145 136 2359ft 8kts
10-Feb-18 13:24 47.623045 -117.525329 179 2352ft 11kts
10-Feb-18 13:25 47.621246 -117.526190 270 2357ft 13kts
10-Feb-18 13:26 47.620648 -117.527371 359 2359ft 0kts
10-Feb-18 13:27 47.620648 -117.527371 359 2359ft 0kts
10-Feb-18 13:28 47.620648 -117.527371 359 2359ft 0kts
10-Feb-18 13:29 47.620648 -117.527371 359 2359ft 0kts
10-Feb-18 13:30 47.620648 -117.527371 359 2359ft 0kts
10-Feb-18 13:31 47.620648 -117.527371 359 2359ft 0kts
10-Feb-18 13:32 47.620648 -117.527371 359 2359ft 0kts
10-Feb-18 13:33 47.620648 -117.527371 359 2359ft 0kts
10-Feb-18 13:34 47.620648 -117.527371 359 2359ft 0kts
10-Feb-18 13:35 47.620648 -117.527371 359 2359ft 0kts
10-Feb-18 13:36 47.620648 -117.527371 359 2359ft 0kts
10-Feb-18 13:37 47.620648 -117.527371 359 2359ft 0kts

Navigation Log

Ident Type
Flight plan parsing failed, navigation log unavailable